createdAt,value
2022-10-18T00:01:58.654Z,21.75
2022-10-18T00:04:26.695Z,21.20
2022-10-18T00:06:54.736Z,20.90
2022-10-18T00:09:22.809Z,21.85
2022-10-18T00:11:50.904Z,20.02
2022-10-18T00:14:21.841Z,20.58
2022-10-18T00:16:49.968Z,20.98
2022-10-18T00:19:18.014Z,21.92
2022-10-18T00:21:51.541Z,19.98
2022-10-18T00:24:19.631Z,21.60
2022-10-18T00:26:47.713Z,23.05
2022-10-18T00:29:17.013Z,22.98
2022-10-18T00:31:48.519Z,20.92
2022-10-18T00:34:17.624Z,22.38
2022-10-18T00:36:48.904Z,21.85
2022-10-18T00:39:20.388Z,22.48
2022-10-18T00:41:51.722Z,22.67
2022-10-18T00:44:19.691Z,24.98
2022-10-18T00:46:50.030Z,22.70
2022-10-18T00:49:22.493Z,21.45
2022-10-18T00:51:57.676Z,24.33
2022-10-18T00:54:27.418Z,23.15
2022-10-18T00:56:58.075Z,23.48
2022-10-18T00:59:27.127Z,21.30
2022-10-18T01:01:55.367Z,23.25
2022-10-18T01:04:26.345Z,24.10
2022-10-18T01:07:21.724Z,23.85
2022-10-18T01:10:00.829Z,23.23
2022-10-18T01:12:40.313Z,23.63
2022-10-18T01:15:34.310Z,24.00
2022-10-18T01:18:26.512Z,24.67
2022-10-18T01:21:32.206Z,24.08
2022-10-18T01:24:27.424Z,24.65
2022-10-18T01:27:16.466Z,25.33
2022-10-18T01:30:04.446Z,23.92
2022-10-18T01:32:49.640Z,24.85
2022-10-18T01:35:25.625Z,25.05
2022-10-18T01:37:58.776Z,23.65
2022-10-18T01:40:30.460Z,23.47
2022-10-18T01:42:58.800Z,23.75
2022-10-18T01:45:27.942Z,24.83
2022-10-18T01:47:56.517Z,24.17
2022-10-18T01:50:33.729Z,26.08
2022-10-18T01:53:02.181Z,23.30
2022-10-18T01:55:45.025Z,23.08
2022-10-18T01:58:12.946Z,24.40
2022-10-18T02:00:44.961Z,24.67
2022-10-18T02:03:28.879Z,23.13
2022-10-18T02:06:27.329Z,24.13
2022-10-18T02:09:10.246Z,24.58
2022-10-18T02:11:45.152Z,24.10
2022-10-18T02:14:14.836Z,27.42
2022-10-18T02:16:51.257Z,26.38
2022-10-18T02:19:39.023Z,29.50
2022-10-18T02:22:09.455Z,27.90
2022-10-18T02:24:49.395Z,27.38
2022-10-18T02:27:20.453Z,24.40
2022-10-18T02:29:49.241Z,22.80
2022-10-18T02:32:22.819Z,26.38
2022-10-18T02:35:06.734Z,25.17
2022-10-18T02:37:39.524Z,24.75
2022-10-18T02:40:09.941Z,25.88
2022-10-18T02:42:45.312Z,26.67
2022-10-18T02:45:14.727Z,28.63
2022-10-18T02:47:43.353Z,26.67
2022-10-18T02:50:11.555Z,26.10
2022-10-18T02:52:42.613Z,26.30
2022-10-18T02:55:11.760Z,26.90
2022-10-18T02:57:39.800Z,25.95
2022-10-18T03:00:08.724Z,27.67
2022-10-18T03:02:36.991Z,30.33
2022-10-18T03:05:05.245Z,28.85
2022-10-18T03:07:33.585Z,27.52
2022-10-18T03:10:01.944Z,27.83
2022-10-18T03:12:29.988Z,27.95
2022-10-18T03:14:58.051Z,27.42
2022-10-18T03:17:26.170Z,24.60
2022-10-18T03:19:54.163Z,28.83
2022-10-18T03:22:24.945Z,29.05
2022-10-18T03:24:55.320Z,28.02
2022-10-18T03:27:26.274Z,28.05
2022-10-18T03:29:54.277Z,26.67
2022-10-18T03:32:22.315Z,27.67
2022-10-18T03:34:50.396Z,24.77
2022-10-18T03:37:18.386Z,25.27
2022-10-18T03:39:46.410Z,25.98
2022-10-18T03:42:16.969Z,27.40
2022-10-18T03:44:45.009Z,33.10
2022-10-18T03:47:13.050Z,30.20
2022-10-18T03:49:41.089Z,30.58
2022-10-18T03:52:09.410Z,27.45
2022-10-18T03:54:39.843Z,26.48
2022-10-18T03:57:07.925Z,26.08
2022-10-18T03:59:38.943Z,27.35
2022-10-18T04:02:06.922Z,25.48
2022-10-18T04:04:34.961Z,26.45
2022-10-18T04:07:03.937Z,26.30
2022-10-18T04:09:32.132Z,26.20
2022-10-18T04:12:00.149Z,27.15
2022-10-18T04:14:28.344Z,25.92
2022-10-18T04:16:59.212Z,26.60
2022-10-18T04:19:27.209Z,30.27
2022-10-18T04:21:55.505Z,28.10
2022-10-18T04:24:23.654Z,27.23
2022-10-18T04:26:51.746Z,27.38
2022-10-18T04:29:22.188Z,27.55
2022-10-18T04:31:50.211Z,29.88
2022-10-18T04:34:20.610Z,30.83
2022-10-18T04:36:51.719Z,30.17
2022-10-18T04:39:19.702Z,31.55
2022-10-18T04:41:47.743Z,28.92
2022-10-18T04:44:16.186Z,30.20
2022-10-18T04:46:44.294Z,29.58
2022-10-18T04:49:12.332Z,30.40
2022-10-18T04:51:40.406Z,28.30
2022-10-18T04:54:08.417Z,27.85
2022-10-18T04:56:39.294Z,25.85
2022-10-18T04:59:07.316Z,26.92
2022-10-18T05:01:35.385Z,27.90
2022-10-18T05:04:03.492Z,28.73
2022-10-18T05:06:31.708Z,30.88
2022-10-18T05:09:02.581Z,29.65
2022-10-18T05:11:30.597Z,30.08
2022-10-18T05:14:01.496Z,28.38
2022-10-18T05:16:29.545Z,27.83
2022-10-18T05:18:57.541Z,27.80
2022-10-18T05:21:25.579Z,29.05
2022-10-18T05:23:56.771Z,27.48
2022-10-18T05:26:24.852Z,28.95
2022-10-18T05:28:53.026Z,28.65
2022-10-18T05:31:21.215Z,28.15
2022-10-18T05:33:49.391Z,29.33
2022-10-18T05:36:17.417Z,28.35
2022-10-18T05:38:45.453Z,31.00
2022-10-18T05:41:15.968Z,28.70
2022-10-18T05:43:43.951Z,28.73
2022-10-18T05:46:15.790Z,29.83
2022-10-18T05:48:50.397Z,30.38
2022-10-18T05:51:19.456Z,29.20
2022-10-18T05:53:47.548Z,28.58
2022-10-18T05:56:15.581Z,29.67
2022-10-18T05:58:50.360Z,29.30
2022-10-18T06:01:18.901Z,27.77
2022-10-18T06:03:46.956Z,27.30
2022-10-18T06:06:15.635Z,28.88
2022-10-18T06:08:44.954Z,27.13
2022-10-18T06:11:17.837Z,28.02
2022-10-18T06:13:50.665Z,28.75
2022-10-18T06:16:21.187Z,29.02
2022-10-18T06:18:56.490Z,28.20
2022-10-18T06:21:25.752Z,30.15
2022-10-18T06:23:58.675Z,28.95
2022-10-18T06:26:28.056Z,26.02
2022-10-18T06:28:56.164Z,25.20
2022-10-18T06:31:24.217Z,31.50
2022-10-18T06:33:52.319Z,29.00
2022-10-18T06:36:23.210Z,28.02
2022-10-18T06:38:51.770Z,28.92
2022-10-18T06:41:20.113Z,30.67
2022-10-18T06:43:52.175Z,30.17
2022-10-18T06:46:22.576Z,32.08
2022-10-18T06:48:50.608Z,28.80
2022-10-18T06:51:18.676Z,27.48
2022-10-18T06:53:59.642Z,29.30
2022-10-18T06:56:39.782Z,31.23
2022-10-18T06:59:07.844Z,28.30
2022-10-18T07:01:35.944Z,28.83
2022-10-18T07:04:04.173Z,27.85
2022-10-18T07:06:32.259Z,27.33
2022-10-18T07:09:02.625Z,26.85
2022-10-18T07:11:30.777Z,29.33
2022-10-18T07:14:05.756Z,27.58
2022-10-18T07:16:35.326Z,28.23
2022-10-18T07:19:03.383Z,29.85
2022-10-18T07:21:31.663Z,31.40
2022-10-18T07:23:59.704Z,31.00
2022-10-18T07:26:35.439Z,28.15
2022-10-18T07:29:11.130Z,33.03
2022-10-18T07:31:39.633Z,30.00
2022-10-18T07:34:09.962Z,28.60
2022-10-18T07:36:38.349Z,29.00
2022-10-18T07:39:07.136Z,29.90
2022-10-18T07:41:35.719Z,29.00
2022-10-18T07:44:09.312Z,31.75
2022-10-18T07:46:37.332Z,31.83
2022-10-18T07:49:05.481Z,32.25
2022-10-18T07:51:33.588Z,30.05
2022-10-18T07:54:01.605Z,30.35
2022-10-18T07:56:31.951Z,28.23
2022-10-18T07:59:00.050Z,28.67
2022-10-18T08:01:30.426Z,27.63
2022-10-18T08:03:59.513Z,27.75
2022-10-18T08:06:30.211Z,28.45
2022-10-18T08:08:58.294Z,27.00
2022-10-18T08:11:27.369Z,29.13
2022-10-18T08:13:55.724Z,27.48
2022-10-18T08:16:26.252Z,32.00
2022-10-18T08:18:54.960Z,31.95
2022-10-18T08:21:26.741Z,33.30
2022-10-18T08:23:54.832Z,32.70
2022-10-18T08:26:25.274Z,30.30
2022-10-18T08:29:10.211Z,28.67
2022-10-18T08:31:38.745Z,28.52
2022-10-18T08:34:06.781Z,29.42
2022-10-18T08:36:34.828Z,30.33
2022-10-18T08:39:04.466Z,29.98
2022-10-18T08:41:38.532Z,32.03
2022-10-18T08:44:14.805Z,31.08
2022-10-18T08:47:05.651Z,30.92
2022-10-18T08:49:47.086Z,32.63
2022-10-18T08:52:53.402Z,33.97
2022-10-18T08:55:32.866Z,31.48
2022-10-18T08:58:00.859Z,28.90
2022-10-18T09:00:33.632Z,28.67
2022-10-18T09:03:23.084Z,27.85
2022-10-18T09:06:01.061Z,31.85
2022-10-18T09:09:01.415Z,30.42
2022-10-18T09:11:52.769Z,34.05
2022-10-18T09:14:38.684Z,33.00
2022-10-18T09:17:22.233Z,34.67
2022-10-18T09:20:13.821Z,23.95
2022-10-18T09:22:52.584Z,32.92
2022-10-18T09:25:25.165Z,34.13
2022-10-18T09:28:17.799Z,37.67
2022-10-18T09:31:13.435Z,33.40
2022-10-18T09:33:51.244Z,31.88
2022-10-18T09:36:30.645Z,33.42
2022-10-18T09:39:04.441Z,30.67
2022-10-18T09:44:24.518Z,34.35
2022-10-18T09:47:21.327Z,32.30
2022-10-18T09:50:28.022Z,31.50
2022-10-18T09:53:19.322Z,33.28
2022-10-18T09:56:12.842Z,30.55
2022-10-18T09:58:46.881Z,22.33
2022-10-18T10:01:21.922Z,28.20
2022-10-18T10:03:53.062Z,27.67
2022-10-18T10:06:30.277Z,29.45
2022-10-18T10:09:05.344Z,31.35
2022-10-18T10:11:39.932Z,28.30
2022-10-18T10:14:21.526Z,30.63
2022-10-18T10:16:54.152Z,30.70
2022-10-18T10:19:27.372Z,30.70
2022-10-18T10:22:14.072Z,25.75
2022-10-18T10:24:50.227Z,32.78
2022-10-18T10:27:22.928Z,28.73
2022-10-18T10:30:01.419Z,29.42
2022-10-18T10:32:49.198Z,29.67
2022-10-18T10:35:56.101Z,29.58
2022-10-18T10:38:29.953Z,32.13
2022-10-18T10:43:40.097Z,35.53
2022-10-18T10:46:17.334Z,35.58
2022-10-18T10:49:08.422Z,36.15
2022-10-18T10:51:43.769Z,32.10
2022-10-18T10:54:20.332Z,38.28
2022-10-18T10:57:00.325Z,32.53
2022-10-18T11:02:18.103Z,32.85
2022-10-18T11:04:48.470Z,31.02
2022-10-18T11:07:37.346Z,32.72
2022-10-18T11:10:11.034Z,32.30
2022-10-18T11:12:50.474Z,28.98
2022-10-18T11:15:27.086Z,31.77
2022-10-18T11:18:01.320Z,30.92
2022-10-18T11:20:32.267Z,31.50
2022-10-18T11:23:04.254Z,30.88
2022-10-18T11:26:13.371Z,30.33
2022-10-18T11:29:17.268Z,30.88
2022-10-18T11:32:00.117Z,32.03
2022-10-18T11:34:33.820Z,34.83
2022-10-18T11:37:28.513Z,35.80
2022-10-18T11:40:16.036Z,35.50
2022-10-18T11:43:03.072Z,82.93
2022-10-18T11:45:52.575Z,36.03
2022-10-18T11:48:41.787Z,33.65
2022-10-18T11:52:07.117Z,40.33
2022-10-18T11:54:47.585Z,36.92
2022-10-18T11:57:18.578Z,39.03
2022-10-18T12:00:30.676Z,35.53
2022-10-18T12:03:35.668Z,35.78
2022-10-18T12:06:13.319Z,36.13
2022-10-18T12:08:49.211Z,32.85
2022-10-18T12:11:24.990Z,35.15
2022-10-18T12:14:06.229Z,33.83
2022-10-18T12:16:51.366Z,34.88
2022-10-18T12:19:27.616Z,38.60
2022-10-18T12:22:09.272Z,35.38
2022-10-18T12:24:38.132Z,37.58
2022-10-18T12:27:12.480Z,40.65
2022-10-18T12:29:48.048Z,40.75
2022-10-18T12:32:29.302Z,38.95
2022-10-18T12:35:16.676Z,36.30
2022-10-18T12:38:16.843Z,37.22
2022-10-18T12:40:50.339Z,34.78
2022-10-18T12:43:23.828Z,33.40
2022-10-18T12:46:00.307Z,35.38
2022-10-18T12:48:40.191Z,34.17
2022-10-18T12:51:21.094Z,34.60
2022-10-18T12:54:14.312Z,36.05
2022-10-18T12:56:44.120Z,39.55
2022-10-18T12:59:18.028Z,34.28
2022-10-18T13:01:52.108Z,35.80
2022-10-18T13:04:29.387Z,33.75
2022-10-18T13:07:00.188Z,34.80
2022-10-18T13:09:31.871Z,37.80
2022-10-18T13:12:19.694Z,35.53
2022-10-18T13:15:25.986Z,35.30
2022-10-18T13:18:07.621Z,33.63
2022-10-18T13:21:03.562Z,35.63
2022-10-18T13:23:47.533Z,31.77
2022-10-18T13:26:31.166Z,36.67
2022-10-18T13:29:40.303Z,38.88
2022-10-18T13:32:44.823Z,37.92
2022-10-18T13:35:49.618Z,41.47
2022-10-18T13:39:06.054Z,40.90
2022-10-18T13:41:59.577Z,36.88
2022-10-18T13:44:35.512Z,35.55
2022-10-18T13:47:03.473Z,35.75
2022-10-18T13:49:40.260Z,35.67
2022-10-18T13:52:42.103Z,34.65
2022-10-18T13:55:31.439Z,36.42
2022-10-18T13:57:59.430Z,41.65
2022-10-18T14:00:49.274Z,39.70
2022-10-18T14:03:55.719Z,39.55
2022-10-18T14:06:21.063Z,40.10
2022-10-18T14:09:45.653Z,40.83
2022-10-18T14:12:46.504Z,42.10
2022-10-18T14:15:18.772Z,35.20
2022-10-18T14:17:49.714Z,36.28
2022-10-18T14:20:55.196Z,37.78
2022-10-18T14:23:44.582Z,37.83
2022-10-18T14:26:22.092Z,36.03
2022-10-18T14:29:07.898Z,36.05
2022-10-18T14:31:39.042Z,35.80
2022-10-18T14:34:07.343Z,37.47
2022-10-18T14:36:42.376Z,37.83
2022-10-18T14:39:23.353Z,43.85
2022-10-18T14:41:56.224Z,46.28
2022-10-18T14:44:29.836Z,28.83
2022-10-18T14:47:25.830Z,38.28
2022-10-18T14:49:57.710Z,40.28
2022-10-18T14:52:35.483Z,37.85
2022-10-18T14:55:03.974Z,34.58
2022-10-18T14:57:36.643Z,39.05
2022-10-18T15:02:59.910Z,38.08
2022-10-18T15:05:27.995Z,38.97
2022-10-18T15:07:59.275Z,40.92
2022-10-18T15:10:35.351Z,38.30
2022-10-18T15:13:12.823Z,33.90
2022-10-18T15:15:41.856Z,35.65
2022-10-18T15:18:26.419Z,37.97
2022-10-18T15:21:23.546Z,38.70
2022-10-18T15:23:54.866Z,38.42
2022-10-18T15:26:26.731Z,41.13
2022-10-18T15:28:55.327Z,40.05
2022-10-18T15:31:32.871Z,37.72
2022-10-18T15:34:26.720Z,39.85
2022-10-18T15:36:57.987Z,41.75
2022-10-18T15:39:33.027Z,42.65
2022-10-18T15:42:05.203Z,39.50
2022-10-18T15:44:47.700Z,40.28
2022-10-18T15:47:17.784Z,41.22
2022-10-18T15:49:45.768Z,40.47
2022-10-18T15:52:37.721Z,42.03
2022-10-18T15:55:31.337Z,39.08
2022-10-18T15:58:16.892Z,39.28
2022-10-18T16:00:49.275Z,39.67
2022-10-18T16:03:19.705Z,40.63
2022-10-18T16:05:47.780Z,41.72
2022-10-18T16:08:25.737Z,39.90
2022-10-18T16:10:54.001Z,45.38
2022-10-18T16:13:21.994Z,42.83
2022-10-18T16:15:55.417Z,47.40
2022-10-18T16:18:24.799Z,47.97
2022-10-18T16:20:55.193Z,46.47
2022-10-18T16:23:29.205Z,51.47
2022-10-18T16:25:57.941Z,50.85
2022-10-18T16:28:27.301Z,45.75
2022-10-18T16:31:03.562Z,50.40
2022-10-18T16:33:32.084Z,47.10
2022-10-18T16:36:02.646Z,50.95
2022-10-18T16:38:37.169Z,44.55
2022-10-18T16:41:06.672Z,45.95
2022-10-18T16:43:35.928Z,46.40
2022-10-18T16:46:05.716Z,47.90
2022-10-18T16:48:34.063Z,50.10
2022-10-18T16:51:02.643Z,49.15
2022-10-18T16:53:33.381Z,48.97
2022-10-18T16:56:09.735Z,48.70
2022-10-18T16:58:37.903Z,48.63
2022-10-18T17:01:08.137Z,49.53
2022-10-18T17:03:37.148Z,55.05
2022-10-18T17:06:06.565Z,49.75
2022-10-18T17:08:36.961Z,53.72
2022-10-18T17:11:05.050Z,54.50
2022-10-18T17:13:36.163Z,59.58
2022-10-18T17:16:04.669Z,56.60
2022-10-18T17:18:32.948Z,59.13
2022-10-18T17:21:04.407Z,55.45
2022-10-18T17:23:35.026Z,54.70
2022-10-18T17:26:27.360Z,56.70
2022-10-18T17:29:01.543Z,55.88
2022-10-18T17:31:31.284Z,56.53
2022-10-18T17:34:02.316Z,56.88
2022-10-18T17:36:32.558Z,55.78
2022-10-18T17:39:01.009Z,53.97
2022-10-18T17:41:32.016Z,53.92
2022-10-18T17:44:00.039Z,59.95
2022-10-18T17:46:30.984Z,58.38
2022-10-18T17:49:05.888Z,59.92
2022-10-18T17:51:34.021Z,60.65
2022-10-18T17:54:05.899Z,60.05
2022-10-18T17:59:09.238Z,58.15
2022-10-18T18:01:37.427Z,61.38
2022-10-18T18:04:05.536Z,60.65
2022-10-18T18:06:36.376Z,59.88
2022-10-18T18:09:08.754Z,59.72
2022-10-18T18:11:38.775Z,59.72
2022-10-18T18:14:07.661Z,57.63
2022-10-18T18:16:37.670Z,55.70
2022-10-18T18:19:09.686Z,58.00
2022-10-18T18:21:41.722Z,63.97
2022-10-18T18:24:10.414Z,60.08
2022-10-18T18:26:39.861Z,58.30
2022-10-18T18:29:08.317Z,61.95
2022-10-18T18:31:39.896Z,58.65
2022-10-18T18:34:10.130Z,63.88
2022-10-18T18:36:40.934Z,59.42
2022-10-18T18:39:09.500Z,64.90
2022-10-18T18:41:37.488Z,60.70
2022-10-18T18:44:06.417Z,59.47
2022-10-18T18:46:36.501Z,57.67
2022-10-18T18:49:08.086Z,56.65
2022-10-18T18:51:36.744Z,55.58
2022-10-18T18:54:05.245Z,55.67
2022-10-18T18:56:35.902Z,61.92
2022-10-18T18:59:04.923Z,58.67
2022-10-18T19:01:36.119Z,58.50
2022-10-18T19:04:05.989Z,59.33
2022-10-18T19:06:37.048Z,58.63
2022-10-18T19:09:08.494Z,56.67
2022-10-18T19:11:40.061Z,53.42
2022-10-18T19:14:09.409Z,49.17
2022-10-18T19:16:54.670Z,52.20
2022-10-18T19:19:27.661Z,52.05
2022-10-18T19:22:01.540Z,59.40
2022-10-18T19:24:31.429Z,59.83
2022-10-18T19:27:03.929Z,59.33
2022-10-18T19:29:39.133Z,55.92
2022-10-18T19:32:09.660Z,54.85
2022-10-18T19:34:40.432Z,53.83
2022-10-18T19:37:08.459Z,56.20
2022-10-18T19:39:36.885Z,59.92
2022-10-18T19:42:07.799Z,57.50
2022-10-18T19:44:37.435Z,57.85
2022-10-18T19:47:07.527Z,53.63
2022-10-18T19:49:35.550Z,55.10
2022-10-18T19:52:04.246Z,56.20
2022-10-18T19:54:32.318Z,54.92
2022-10-18T19:57:02.657Z,54.47
2022-10-18T19:59:30.905Z,55.22
2022-10-18T20:01:58.948Z,54.45
2022-10-18T20:04:27.009Z,57.55
2022-10-18T20:06:57.641Z,55.95
2022-10-18T20:09:25.646Z,51.20
2022-10-18T20:11:53.660Z,53.35
2022-10-18T20:14:21.655Z,50.92
2022-10-18T20:16:49.673Z,53.05
2022-10-18T20:19:20.321Z,49.53
2022-10-18T20:21:55.242Z,46.65
2022-10-18T20:24:26.144Z,50.35
2022-10-18T20:26:54.180Z,53.60
2022-10-18T20:29:24.976Z,53.03
2022-10-18T20:31:55.879Z,52.55
2022-10-18T20:34:23.921Z,52.22
2022-10-18T20:36:57.458Z,54.28
2022-10-18T20:39:25.624Z,51.38
2022-10-18T20:41:53.696Z,53.53
2022-10-18T20:44:24.558Z,50.10
2022-10-18T20:46:52.587Z,52.35
2022-10-18T20:49:20.751Z,53.17
2022-10-18T20:51:48.811Z,54.83
2022-10-18T20:54:19.493Z,54.65
2022-10-18T20:56:47.551Z,56.45
2022-10-18T20:59:18.438Z,60.53
2022-10-18T21:01:51.828Z,59.00
2022-10-18T21:04:20.100Z,58.95
2022-10-18T21:06:50.431Z,58.60
2022-10-18T21:09:20.480Z,60.20
2022-10-18T21:11:51.195Z,56.40
2022-10-18T21:14:21.295Z,55.58
2022-10-18T21:16:52.928Z,55.55
2022-10-18T21:19:27.098Z,54.38
2022-10-18T21:21:57.874Z,56.35
2022-10-18T21:24:27.507Z,60.22
2022-10-18T21:26:55.789Z,58.70
2022-10-18T21:29:24.818Z,60.10
2022-10-18T21:31:56.858Z,61.53
2022-10-18T21:34:24.978Z,56.47
2022-10-18T21:36:53.177Z,59.40
2022-10-18T21:41:53.014Z,55.58
2022-10-18T21:44:21.113Z,53.20
2022-10-18T21:46:49.607Z,57.80
2022-10-18T21:49:21.146Z,56.55
2022-10-18T21:51:49.164Z,57.70
2022-10-18T21:54:17.577Z,56.80
2022-10-18T21:56:48.185Z,55.63
2022-10-18T21:59:16.171Z,53.75
2022-10-18T22:01:47.108Z,53.90
2022-10-18T22:04:21.197Z,53.55
2022-10-18T22:09:20.167Z,53.03
2022-10-18T22:11:51.715Z,55.15
2022-10-18T22:14:20.058Z,55.03
2022-10-18T22:16:50.419Z,54.75
2022-10-18T22:19:18.717Z,51.83
2022-10-18T22:21:46.724Z,52.22
2022-10-18T22:24:14.826Z,49.20
2022-10-18T22:26:44.558Z,50.17
2022-10-18T22:29:16.600Z,52.67
2022-10-18T22:31:48.049Z,50.08
2022-10-18T22:34:21.939Z,50.55
2022-10-18T22:39:18.566Z,50.85
2022-10-18T22:41:49.097Z,50.45
2022-10-18T22:44:17.159Z,51.40
2022-10-18T22:46:45.184Z,51.35
2022-10-18T22:49:13.731Z,50.92
2022-10-18T22:51:41.864Z,53.80
2022-10-18T22:54:10.172Z,53.60
2022-10-18T22:56:38.285Z,53.15
2022-10-18T22:59:06.398Z,52.67
2022-10-18T23:01:34.485Z,52.65
2022-10-18T23:04:02.831Z,52.95
2022-10-18T23:06:33.760Z,55.88
2022-10-18T23:09:04.599Z,53.83
2022-10-18T23:11:32.957Z,56.65
2022-10-18T23:14:01.779Z,56.85
2022-10-18T23:16:29.810Z,55.13
2022-10-18T23:18:59.007Z,56.40
2022-10-18T23:21:29.376Z,56.50
2022-10-18T23:23:58.104Z,53.60
2022-10-18T23:26:28.288Z,58.55
2022-10-18T23:28:56.680Z,59.45
2022-10-18T23:31:26.324Z,56.95
2022-10-18T23:33:59.196Z,57.33
2022-10-18T23:36:28.121Z,55.25
2022-10-18T23:38:56.611Z,58.53
2022-10-18T23:41:25.279Z,57.20
2022-10-18T23:43:54.051Z,58.78
2022-10-18T23:46:22.244Z,57.22
2022-10-18T23:48:52.985Z,60.03
2022-10-18T23:51:21.117Z,58.83
2022-10-18T23:53:49.198Z,56.88
2022-10-18T23:56:20.407Z,57.60
2022-10-18T23:58:51.015Z,59.60
